Rosevine, Texas
Current Conditions -  °F | °C
As of 12:55 PM on Thursday 30 Oct 2014 (Local Time) from KJAS Reporting Station
Clear Clear  
Wind Chill: 71°   Ceiling: Unl
Heat Index: 71°   Visibility: 10mi
Dew Point: 44°   Wind: 6mph
Humidity: 38%   Direction: 100°E
Pressure: 30.16"   Gusts: NA
Location:  31.3308°N, 94.0111°W
Report Text: KJAS 301755Z AUTO 10005KT 10SM CLR 21/07 A3016 RMK AO2 T02140066
Loading
Personal Weather Stations






























Interactive Weather Map New forecast layout! Learn more

10-Day Weather Forecast

Advertisements
Track Severe Weather on mobile